createdAt,value
2018-09-10T00:00:20.484Z,3.60
2018-09-10T00:02:47.508Z,3.30
2018-09-10T00:07:41.500Z,3.90
2018-09-10T00:10:08.430Z,3.80
2018-09-10T00:12:35.378Z,3.53
2018-09-10T00:15:02.321Z,3.60
2018-09-10T00:17:29.248Z,3.97
2018-09-10T00:19:56.207Z,3.10
2018-09-10T00:22:23.142Z,4.27
2018-09-10T00:24:50.077Z,4.33
2018-09-10T00:29:49.292Z,4.23
2018-09-10T00:32:16.236Z,4.43
2018-09-10T00:37:23.687Z,4.53
2018-09-10T00:39:53.565Z,3.83
2018-09-10T00:42:20.529Z,4.67
2018-09-10T00:44:50.591Z,3.67
2018-09-10T00:47:17.557Z,4.37
2018-09-10T00:49:48.125Z,4.50
2018-09-10T00:52:15.674Z,4.20
2018-09-10T00:54:42.607Z,4.13
2018-09-10T00:57:09.553Z,4.30
2018-09-10T00:59:39.625Z,4.20
2018-09-10T01:02:06.592Z,4.20
2018-09-10T01:04:33.537Z,4.43
2018-09-10T01:07:00.457Z,4.70
2018-09-10T01:09:27.416Z,4.67
2018-09-10T01:11:54.376Z,4.37
2018-09-10T01:14:21.311Z,4.00
2018-09-10T01:16:48.299Z,4.17
2018-09-10T01:19:15.231Z,4.10
2018-09-10T01:21:42.159Z,4.40
2018-09-10T01:24:09.122Z,3.60
2018-09-10T01:26:36.045Z,4.30
2018-09-10T01:29:02.999Z,4.20
2018-09-10T01:31:30.027Z,4.10
2018-09-10T01:33:56.983Z,5.07
2018-09-10T01:36:23.920Z,3.93
2018-09-10T01:38:50.874Z,4.73
2018-09-10T01:41:17.819Z,3.93
2018-09-10T01:43:48.661Z,4.00
2018-09-10T01:46:15.684Z,3.70
2018-09-10T01:48:44.948Z,4.00
2018-09-10T01:51:11.881Z,4.10
2018-09-10T01:53:38.832Z,4.93
2018-09-10T01:58:46.237Z,4.40
2018-09-10T02:01:15.044Z,4.30
2018-09-10T02:03:40.105Z,4.27
2018-09-10T02:06:07.056Z,4.97
2018-09-10T02:08:34.015Z,4.87
2018-09-10T02:11:00.950Z,4.70
2018-09-10T02:13:27.892Z,4.00
2018-09-10T02:15:54.848Z,4.80
2018-09-10T02:18:21.785Z,4.53
2018-09-10T02:20:48.738Z,5.17
2018-09-10T02:23:16.111Z,4.90
2018-09-10T02:25:43.041Z,4.60
2018-09-10T02:28:09.998Z,4.50
2018-09-10T02:30:36.943Z,4.93
2018-09-10T02:33:03.889Z,4.50
2018-09-10T02:35:35.083Z,4.37
2018-09-10T02:38:00.076Z,4.30
2018-09-10T02:40:32.075Z,4.77
2018-09-10T02:42:59.054Z,4.87
2018-09-10T02:45:25.991Z,4.87
2018-09-10T02:47:52.940Z,4.30
2018-09-10T02:50:19.887Z,4.83
2018-09-10T02:52:46.837Z,4.53
2018-09-10T02:55:13.856Z,5.10
2018-09-10T02:57:40.871Z,4.43
2018-09-10T03:00:07.809Z,4.77
2018-09-10T03:02:34.738Z,4.30
2018-09-10T03:05:01.684Z,3.97
2018-09-10T03:07:28.628Z,3.73
2018-09-10T03:09:55.576Z,4.63
2018-09-10T03:12:22.513Z,4.13
2018-09-10T03:14:52.437Z,4.40
2018-09-10T03:17:16.390Z,4.47
2018-09-10T03:22:23.243Z,4.55
2018-09-10T03:24:50.205Z,4.77
2018-09-10T03:27:17.133Z,4.03
2018-09-10T03:29:44.077Z,4.90
2018-09-10T03:32:12.198Z,4.10
2018-09-10T03:34:39.162Z,4.00
2018-09-10T03:37:06.109Z,4.43
2018-09-10T03:39:33.058Z,4.47
2018-09-10T03:42:00.040Z,4.70
2018-09-10T03:44:27.149Z,4.80
2018-09-10T03:46:54.089Z,4.53
2018-09-10T03:49:21.054Z,5.13
2018-09-10T03:51:47.996Z,5.80
2018-09-10T03:54:14.948Z,5.20
2018-09-10T03:59:25.072Z,5.20
2018-09-10T04:01:52.007Z,5.13
2018-09-10T04:04:18.959Z,4.87
2018-09-10T04:09:34.880Z,4.90
2018-09-10T04:12:01.840Z,5.03
2018-09-10T04:14:28.779Z,4.50
2018-09-10T04:16:55.746Z,5.00
2018-09-10T04:19:22.682Z,4.70
2018-09-10T04:21:53.210Z,5.20
2018-09-10T04:24:20.157Z,4.83
2018-09-10T04:26:47.098Z,5.33
2018-09-10T04:29:14.037Z,4.53
2018-09-10T04:31:40.977Z,4.60
2018-09-10T04:34:10.925Z,4.47
2018-09-10T04:36:37.860Z,4.90
2018-09-10T04:39:05.451Z,5.83
2018-09-10T04:41:32.401Z,5.57
2018-09-10T04:46:45.137Z,5.70
2018-09-10T04:49:13.606Z,4.90
2018-09-10T04:51:40.585Z,4.77
2018-09-10T04:54:07.528Z,5.40
2018-09-10T04:56:34.484Z,5.33
2018-09-10T04:59:01.427Z,5.30
2018-09-10T05:01:28.381Z,5.37
2018-09-10T05:03:55.340Z,5.27
2018-09-10T05:06:22.290Z,5.00
2018-09-10T05:08:49.226Z,5.37
2018-09-10T05:13:48.971Z,5.90
2018-09-10T05:16:15.915Z,5.87
2018-09-10T05:18:42.848Z,6.00
2018-09-10T05:21:09.806Z,6.00
2018-09-10T05:23:36.738Z,6.53
2018-09-10T05:26:04.809Z,6.33
2018-09-10T05:28:31.772Z,6.33
2018-09-10T05:30:58.722Z,7.13
2018-09-10T05:33:25.658Z,6.53
2018-09-10T05:35:52.604Z,6.10
2018-09-10T05:38:19.559Z,6.63
2018-09-10T05:40:46.504Z,6.77
2018-09-10T05:43:13.443Z,6.83
2018-09-10T05:45:40.408Z,6.83
2018-09-10T05:48:07.372Z,6.53
2018-09-10T05:50:35.945Z,6.47
2018-09-10T05:53:02.962Z,5.90
2018-09-10T05:55:29.884Z,6.30
2018-09-10T05:57:56.815Z,6.13
2018-09-10T06:00:23.887Z,6.27
2018-09-10T06:05:38.042Z,9.07
2018-09-10T06:08:02.295Z,20.47
2018-09-10T06:10:29.389Z,5.33
2018-09-10T06:12:56.380Z,5.87
2018-09-10T06:15:23.196Z,6.20
2018-09-10T06:17:53.083Z,6.93
2018-09-10T06:20:20.030Z,5.90
2018-09-10T06:22:50.430Z,6.40
2018-09-10T06:25:17.386Z,6.20
2018-09-10T06:27:44.327Z,6.57
2018-09-10T06:30:11.290Z,6.17
2018-09-10T06:32:38.208Z,6.70
2018-09-10T06:35:05.513Z,6.33
2018-09-10T06:37:32.554Z,6.30
2018-09-10T06:39:59.517Z,6.43
2018-09-10T06:42:26.459Z,6.43
2018-09-10T06:44:53.410Z,6.43
2018-09-10T06:47:20.366Z,6.20
2018-09-10T06:49:52.964Z,6.00
2018-09-10T06:52:19.910Z,6.43
2018-09-10T06:54:48.628Z,10.50
2018-09-10T06:57:15.591Z,7.40
2018-09-10T06:59:42.547Z,6.17
2018-09-10T07:02:09.491Z,4.63
2018-09-10T07:04:38.377Z,5.73
2018-09-10T07:07:03.434Z,5.20
2018-09-10T07:09:30.375Z,5.10
2018-09-10T07:11:57.306Z,5.20
2018-09-10T07:14:26.210Z,6.03
2018-09-10T07:16:54.853Z,6.97
2018-09-10T07:19:21.792Z,5.67
2018-09-10T07:21:51.733Z,5.77
2018-09-10T07:24:18.658Z,5.93
2018-09-10T07:29:24.384Z,6.43
2018-09-10T07:32:00.607Z,6.93
2018-09-10T07:34:24.889Z,5.90
2018-09-10T07:36:55.947Z,5.60
2018-09-10T07:42:10.510Z,6.20
2018-09-10T07:44:43.331Z,5.10
2018-09-10T07:47:07.177Z,6.10
2018-09-10T07:49:35.667Z,5.10
2018-09-10T07:52:04.288Z,4.60
2018-09-10T07:57:16.901Z,5.18
2018-09-10T07:59:45.894Z,5.13
2018-09-10T08:02:13.461Z,4.63
2018-09-10T08:07:22.495Z,5.03
2018-09-10T08:09:53.443Z,4.57
2018-09-10T08:12:21.429Z,5.43
2018-09-10T08:14:49.552Z,5.37
2018-09-10T08:17:17.186Z,4.60
2018-09-10T08:19:46.112Z,4.73
2018-09-10T08:22:15.064Z,4.40
2018-09-10T08:24:43.070Z,4.33
2018-09-10T08:27:10.499Z,4.67
2018-09-10T08:29:39.318Z,4.83
2018-09-10T08:34:48.605Z,5.03
2018-09-10T08:37:15.576Z,4.27
2018-09-10T08:39:42.726Z,5.00
2018-09-10T08:42:09.879Z,4.63
2018-09-10T08:44:36.837Z,5.03
2018-09-10T08:47:03.770Z,4.63
2018-09-10T08:49:30.710Z,5.23
2018-09-10T08:51:57.650Z,4.60
2018-09-10T08:54:24.792Z,5.07
2018-09-10T08:56:51.541Z,4.90
2018-09-10T08:59:20.784Z,4.50
2018-09-10T09:01:47.726Z,5.07
2018-09-10T09:04:15.544Z,4.10
2018-09-10T09:06:42.499Z,5.27
2018-09-10T09:09:11.027Z,5.03
2018-09-10T09:11:37.991Z,4.90
2018-09-10T09:14:04.935Z,4.20
2018-09-10T09:16:31.907Z,4.20
2018-09-10T09:18:58.843Z,4.17
2018-09-10T09:21:25.772Z,4.33
2018-09-10T09:23:52.731Z,5.20
2018-09-10T09:26:23.041Z,4.30
2018-09-10T09:28:50.001Z,4.87
2018-09-10T09:31:16.966Z,3.83
2018-09-10T09:33:43.906Z,4.23
2018-09-10T09:36:14.262Z,4.90
2018-09-10T09:38:41.187Z,4.90
2018-09-10T09:41:08.131Z,4.00
2018-09-10T09:43:35.169Z,4.50
2018-09-10T09:46:07.105Z,4.00
2018-09-10T09:48:34.005Z,3.90
2018-09-10T09:51:00.983Z,3.83
2018-09-10T09:53:27.899Z,4.63
2018-09-10T09:55:55.023Z,4.67
2018-09-10T09:58:23.643Z,4.93
2018-09-10T10:03:30.919Z,5.03
2018-09-10T10:05:57.893Z,4.60
2018-09-10T10:08:24.834Z,5.10
2018-09-10T10:10:51.789Z,4.73
2018-09-10T10:13:18.723Z,4.90
2018-09-10T10:15:45.673Z,4.50
2018-09-10T10:18:12.617Z,4.37
2018-09-10T10:20:41.414Z,4.77
2018-09-10T10:23:08.369Z,4.03
2018-09-10T10:25:38.233Z,4.77
2018-09-10T10:28:05.218Z,4.73
2018-09-10T10:30:36.957Z,4.80
2018-09-10T10:33:03.895Z,4.57
2018-09-10T10:35:31.262Z,4.40
2018-09-10T10:37:58.212Z,4.40
2018-09-10T10:40:25.157Z,4.70
2018-09-10T10:42:52.093Z,4.67
2018-09-10T10:45:19.043Z,4.37
2018-09-10T10:47:47.343Z,4.03
2018-09-10T10:50:14.295Z,4.37
2018-09-10T10:52:41.246Z,4.43
2018-09-10T10:55:08.298Z,4.57
2018-09-10T11:00:17.136Z,4.00
2018-09-10T11:02:44.072Z,3.80
2018-09-10T11:05:11.026Z,3.83
2018-09-10T11:07:37.967Z,3.40
2018-09-10T11:10:04.998Z,3.63
2018-09-10T11:12:31.954Z,4.23
2018-09-10T11:15:01.160Z,3.67
2018-09-10T11:17:28.097Z,3.83
2018-09-10T11:19:55.029Z,4.00
2018-09-10T11:22:22.000Z,4.13
2018-09-10T11:24:48.926Z,3.70
2018-09-10T11:27:15.865Z,3.80
2018-09-10T11:29:42.811Z,3.73
2018-09-10T11:32:09.758Z,3.70
2018-09-10T11:34:36.707Z,3.67
2018-09-10T11:37:03.661Z,3.10
2018-09-10T11:39:30.637Z,3.20
2018-09-10T11:41:57.556Z,3.40
2018-09-10T11:44:24.501Z,3.47
2018-09-10T11:46:51.449Z,3.40
2018-09-10T11:49:18.394Z,3.57
2018-09-10T11:51:45.345Z,3.40
2018-09-10T11:54:12.283Z,3.50
2018-09-10T11:56:39.233Z,3.10
2018-09-10T11:59:06.159Z,3.20
2018-09-10T12:01:33.140Z,2.77
2018-09-10T12:04:00.045Z,2.90
2018-09-10T12:06:26.997Z,2.53
2018-09-10T12:08:53.919Z,2.40
2018-09-10T12:11:20.869Z,2.17
2018-09-10T12:13:49.163Z,2.00
2018-09-10T12:16:16.109Z,2.47
2018-09-10T12:21:21.495Z,2.40
2018-09-10T12:23:48.424Z,2.03
2018-09-10T12:26:15.373Z,2.17
2018-09-10T12:28:42.302Z,2.10
2018-09-10T12:31:12.271Z,2.00
2018-09-10T12:33:39.198Z,1.97
2018-09-10T12:38:49.964Z,2.00
2018-09-10T12:41:16.921Z,1.83
2018-09-10T12:43:43.892Z,2.00
2018-09-10T12:46:10.822Z,1.80
2018-09-10T12:48:37.765Z,2.77
2018-09-10T12:51:04.838Z,2.17
2018-09-10T12:53:31.783Z,2.50
2018-09-10T12:55:58.757Z,2.00
2018-09-10T12:58:25.697Z,2.00
2018-09-10T13:00:53.054Z,1.97
2018-09-10T13:03:19.996Z,2.00
2018-09-10T13:08:26.873Z,2.67
2018-09-10T13:10:53.790Z,1.90
2018-09-10T13:13:20.719Z,2.33
2018-09-10T13:15:47.662Z,2.03
2018-09-10T13:18:14.621Z,2.40
2018-09-10T13:20:44.763Z,2.07
2018-09-10T13:23:11.683Z,2.37
2018-09-10T13:25:38.633Z,2.10
2018-09-10T13:28:05.565Z,2.30
2018-09-10T13:30:32.509Z,2.20
2018-09-10T13:32:59.457Z,2.40
2018-09-10T13:35:28.416Z,2.13
2018-09-10T13:37:55.362Z,2.67
2018-09-10T13:40:22.304Z,2.13
2018-09-10T13:42:49.242Z,2.20
2018-09-10T13:45:16.195Z,2.63
2018-09-10T13:47:43.130Z,2.13
2018-09-10T13:50:10.074Z,1.70
2018-09-10T13:52:37.002Z,2.00
2018-09-10T13:55:03.942Z,2.53
2018-09-10T13:57:31.296Z,2.20
2018-09-10T13:59:58.231Z,2.20
2018-09-10T14:02:25.166Z,2.40
2018-09-10T14:04:52.115Z,2.20
2018-09-10T14:07:19.068Z,2.50
2018-09-10T14:09:45.997Z,2.03
2018-09-10T14:12:12.945Z,2.20
2018-09-10T14:17:20.340Z,2.20
2018-09-10T14:19:47.335Z,2.07
2018-09-10T14:22:14.275Z,2.40
2018-09-10T14:24:41.203Z,2.23
2018-09-10T14:27:09.456Z,1.93
2018-09-10T14:29:36.365Z,2.33
2018-09-10T14:32:03.328Z,2.10
2018-09-10T14:34:30.333Z,1.90
2018-09-10T14:36:57.236Z,1.83
2018-09-10T14:39:24.185Z,1.77
2018-09-10T14:41:51.139Z,2.07
2018-09-10T14:44:18.063Z,2.07
2018-09-10T14:46:44.992Z,2.43
2018-09-10T14:49:11.943Z,2.17
2018-09-10T14:51:38.888Z,2.23
2018-09-10T14:54:05.836Z,2.23
2018-09-10T14:56:37.947Z,2.53
2018-09-10T14:59:04.888Z,2.33
2018-09-10T15:01:31.830Z,2.10
2018-09-10T15:03:58.770Z,2.10
2018-09-10T15:06:25.694Z,2.10
2018-09-10T15:08:52.648Z,2.00
2018-09-10T15:11:19.586Z,2.07
2018-09-10T15:13:46.538Z,2.30
2018-09-10T15:16:13.465Z,1.90
2018-09-10T15:18:41.371Z,1.80
2018-09-10T15:21:08.311Z,2.30
2018-09-10T15:23:41.041Z,2.07
2018-09-10T15:26:08.025Z,2.27
2018-09-10T15:28:34.933Z,2.40
2018-09-10T15:31:01.880Z,2.23
2018-09-10T15:33:28.804Z,2.03
2018-09-10T15:35:55.753Z,2.60
2018-09-10T15:38:22.706Z,2.27
2018-09-10T15:43:28.093Z,3.30
2018-09-10T15:45:58.943Z,2.77
2018-09-10T15:48:25.892Z,2.40
2018-09-10T15:50:52.849Z,3.00
2018-09-10T15:53:19.796Z,2.40
2018-09-10T15:55:47.089Z,2.80
2018-09-10T15:58:14.017Z,2.77
2018-09-10T16:00:40.966Z,2.77
2018-09-10T16:03:07.918Z,2.50
2018-09-10T16:05:34.852Z,2.50
2018-09-10T16:08:01.804Z,2.40
2018-09-10T16:10:28.742Z,2.40
2018-09-10T16:12:55.708Z,2.80
2018-09-10T16:15:22.637Z,2.37
2018-09-10T16:17:49.582Z,2.60
2018-09-10T16:20:16.515Z,2.70
2018-09-10T16:22:45.005Z,2.40
2018-09-10T16:25:11.983Z,2.83
2018-09-10T16:27:39.044Z,2.73
2018-09-10T16:30:07.539Z,2.97
2018-09-10T16:32:34.471Z,2.80
2018-09-10T16:35:01.663Z,2.20
2018-09-10T16:37:29.085Z,2.33
2018-09-10T16:39:56.038Z,2.27
2018-09-10T16:42:22.999Z,2.57
2018-09-10T16:44:49.933Z,2.50
2018-09-10T16:47:16.901Z,2.87
2018-09-10T16:49:46.043Z,3.13
2018-09-10T16:52:12.987Z,2.93
2018-09-10T16:54:39.981Z,2.90
2018-09-10T16:57:06.886Z,2.50
2018-09-10T16:59:33.840Z,2.67
2018-09-10T17:02:01.355Z,2.60
2018-09-10T17:04:28.236Z,3.07
2018-09-10T17:06:55.190Z,2.90
2018-09-10T17:12:00.579Z,2.80
2018-09-10T17:14:27.562Z,2.00
2018-09-10T17:16:54.495Z,2.33
2018-09-10T17:19:21.856Z,2.97
2018-09-10T17:21:48.827Z,2.70
2018-09-10T17:24:15.770Z,2.63
2018-09-10T17:26:42.741Z,2.50
2018-09-10T17:31:49.470Z,3.17
2018-09-10T17:34:16.586Z,2.83
2018-09-10T17:36:43.524Z,2.73
2018-09-10T17:39:10.471Z,2.73
2018-09-10T17:41:37.397Z,3.03
2018-09-10T17:44:04.560Z,2.70
2018-09-10T17:46:31.507Z,2.80
2018-09-10T17:48:58.464Z,4.20
2018-09-10T17:51:25.599Z,3.67
2018-09-10T17:53:52.757Z,4.30
2018-09-10T17:56:20.425Z,3.67
2018-09-10T17:58:47.362Z,3.27
2018-09-10T18:01:14.467Z,3.30
2018-09-10T18:03:41.399Z,3.63
2018-09-10T18:06:08.338Z,2.60
2018-09-10T18:08:35.512Z,3.03
2018-09-10T18:11:03.923Z,2.60
2018-09-10T18:13:30.864Z,2.73
2018-09-10T18:15:57.973Z,3.60
2018-09-10T18:18:24.917Z,2.90
2018-09-10T18:23:35.378Z,3.53
2018-09-10T18:26:02.470Z,3.97
2018-09-10T18:28:29.942Z,3.93
2018-09-10T18:30:57.420Z,3.53
2018-09-10T18:33:24.498Z,3.70
2018-09-10T18:35:52.059Z,3.93
2018-09-10T18:38:22.888Z,6.80
2018-09-10T18:40:49.617Z,3.80
2018-09-10T18:43:16.564Z,3.87
2018-09-10T18:45:43.501Z,4.33
2018-09-10T18:48:10.686Z,3.80
2018-09-10T18:50:37.797Z,3.70
2018-09-10T18:53:09.587Z,4.60
2018-09-10T18:55:34.904Z,5.07
2018-09-10T19:00:49.865Z,4.70
2018-09-10T19:03:16.766Z,4.77
2018-09-10T19:05:43.729Z,5.00
2018-09-10T19:08:10.685Z,4.10
2018-09-10T19:10:37.752Z,3.87
2018-09-10T19:13:04.698Z,3.87
2018-09-10T19:15:31.845Z,3.13
2018-09-10T19:17:59.036Z,4.03
2018-09-10T19:20:26.071Z,3.87
2018-09-10T19:22:53.003Z,4.07
2018-09-10T19:25:20.113Z,4.67
2018-09-10T19:27:47.162Z,4.40
2018-09-10T19:30:14.090Z,3.60
2018-09-10T19:32:41.032Z,4.30
2018-09-10T19:35:07.976Z,4.43
2018-09-10T19:37:35.142Z,4.17
2018-09-10T19:40:02.043Z,4.47
2018-09-10T19:42:29.058Z,3.83
2018-09-10T19:44:56.017Z,4.27
2018-09-10T19:47:22.966Z,3.80
2018-09-10T19:49:50.030Z,4.00
2018-09-10T19:52:17.060Z,3.50
2018-09-10T19:54:43.972Z,3.60
2018-09-10T19:57:10.921Z,3.63
2018-09-10T19:59:38.266Z,3.40
2018-09-10T20:02:05.469Z,3.90
2018-09-10T20:04:33.162Z,3.23
2018-09-10T20:07:01.195Z,3.10
2018-09-10T20:09:28.307Z,3.90
2018-09-10T20:11:56.695Z,3.50
2018-09-10T20:14:23.921Z,3.97
2018-09-10T20:16:51.243Z,3.80
2018-09-10T20:19:19.965Z,3.83
2018-09-10T20:24:27.244Z,3.72
2018-09-10T20:26:54.103Z,3.53
2018-09-10T20:29:21.069Z,3.67
2018-09-10T20:31:48.014Z,3.90
2018-09-10T20:34:14.968Z,3.50
2018-09-10T20:36:41.926Z,3.77
2018-09-10T20:39:08.862Z,3.53
2018-09-10T20:41:35.897Z,3.50
2018-09-10T20:44:02.913Z,3.20
2018-09-10T20:46:29.860Z,3.40
2018-09-10T20:48:56.786Z,3.07
2018-09-10T20:51:23.738Z,3.03
2018-09-10T20:53:50.679Z,3.30
2018-09-10T20:56:17.634Z,2.93
2018-09-10T20:58:44.559Z,3.03
2018-09-10T21:01:11.476Z,2.93
2018-09-10T21:03:38.425Z,3.73
2018-09-10T21:06:05.355Z,3.33
2018-09-10T21:08:32.760Z,4.13
2018-09-10T21:10:59.355Z,3.83
2018-09-10T21:13:26.295Z,3.57
2018-09-10T21:15:53.251Z,3.50
2018-09-10T21:18:20.183Z,4.30
2018-09-10T21:20:47.130Z,3.23
2018-09-10T21:23:14.082Z,3.40
2018-09-10T21:25:41.057Z,3.27
2018-09-10T21:28:07.980Z,3.33
2018-09-10T21:30:34.921Z,3.53
2018-09-10T21:33:01.910Z,3.40
2018-09-10T21:35:28.829Z,3.37
2018-09-10T21:37:55.836Z,3.83
2018-09-10T21:40:22.766Z,3.43
2018-09-10T21:42:49.708Z,3.37
2018-09-10T21:45:16.768Z,3.83
2018-09-10T21:50:22.170Z,3.47
2018-09-10T21:52:49.124Z,3.40
2018-09-10T21:55:16.093Z,3.80
2018-09-10T21:57:43.032Z,3.73
2018-09-10T22:00:10.045Z,3.30
2018-09-10T22:02:36.997Z,3.37
2018-09-10T22:05:03.925Z,3.70
2018-09-10T22:07:30.873Z,3.50
2018-09-10T22:09:57.879Z,3.67
2018-09-10T22:12:24.748Z,3.13
2018-09-10T22:14:51.712Z,3.90
2018-09-10T22:17:18.654Z,4.13
2018-09-10T22:19:45.600Z,3.50
2018-09-10T22:22:12.529Z,3.83
2018-09-10T22:24:39.547Z,4.20
2018-09-10T22:27:06.420Z,4.03
2018-09-10T22:29:33.373Z,3.87
2018-09-10T22:32:00.319Z,4.57
2018-09-10T22:34:27.240Z,4.57
2018-09-10T22:36:54.190Z,4.37
2018-09-10T22:39:21.114Z,4.10
2018-09-10T22:41:48.064Z,4.00
2018-09-10T22:44:15.055Z,4.03
2018-09-10T22:46:41.947Z,4.30
2018-09-10T22:49:08.901Z,3.77
2018-09-10T22:51:35.827Z,4.30
2018-09-10T22:54:02.778Z,4.07
2018-09-10T22:56:29.726Z,4.07
2018-09-10T22:58:56.663Z,4.00
2018-09-10T23:01:23.593Z,4.30
2018-09-10T23:03:50.547Z,3.77
2018-09-10T23:06:17.469Z,4.53
2018-09-10T23:11:22.855Z,4.35
2018-09-10T23:13:49.798Z,3.93
2018-09-10T23:16:16.725Z,3.97
2018-09-10T23:18:43.673Z,3.87
2018-09-10T23:21:10.627Z,3.80
2018-09-10T23:23:37.554Z,3.73
2018-09-10T23:26:04.477Z,3.70
2018-09-10T23:28:31.428Z,4.23
2018-09-10T23:30:58.372Z,4.13
2018-09-10T23:33:25.423Z,4.33
2018-09-10T23:35:52.354Z,4.77
2018-09-10T23:38:19.386Z,4.20
2018-09-10T23:40:46.318Z,3.67
2018-09-10T23:43:13.257Z,4.47
2018-09-10T23:45:40.204Z,4.63
2018-09-10T23:48:07.130Z,4.90
2018-09-10T23:50:34.074Z,4.50
2018-09-10T23:53:01.014Z,3.73
2018-09-10T23:55:27.963Z,3.60
2018-09-10T23:57:54.908Z,3.67
